Time;durP1;ratioP1;P1;durP2;ratioP2;P2;SDS_P1;SDS_P2;PMS_P1;PMS_P2;Temp;Humidity;BMP_temperature;BMP_pressure;BME280_temperature;BME280_humidity;BME280_pressure;Samples;Min_cycle;Max_cycle;Signal;HPM_P1;HPM_P2
2023/07/12 00:00:46;;;;;;;3.30;0.90;;;21.40;99.90;;;;;;5008928;28;20034;-57
2023/07/12 00:03:13;;;;;;;3.35;1.00;;;21.30;99.90;;;;;;5008598;28;20029;-59
2023/07/12 00:05:39;;;;;;;2.47;1.17;;;21.20;99.90;;;;;;4990234;28;20117;-55
2023/07/12 00:08:05;;;;;;;2.70;1.30;;;21.10;99.90;;;;;;5008808;28;20176;-58
2023/07/12 00:10:35;;;;;;;2.17;1.05;;;21.10;99.90;;;;;;5008878;28;20026;-60
2023/07/12 00:13:02;;;;;;;2.90;1.13;;;21.00;99.90;;;;;;5008425;28;20034;-56
2023/07/12 00:15:31;;;;;;;1.67;1.00;;;21.00;99.90;;;;;;5008498;28;20065;-57
2023/07/12 00:17:57;;;;;;;1.63;0.90;;;21.00;99.90;;;;;;5008651;28;20145;-59
2023/07/12 00:20:35;;;;;;;1.75;0.90;;;20.90;99.90;;;;;;5008618;28;20041;-58
2023/07/12 00:23:01;;;;;;;1.53;0.83;;;20.90;99.90;;;;;;5008431;28;20586;-59
2023/07/12 00:25:32;;;;;;;1.10;0.75;;;20.90;99.90;;;;;;5011311;28;20432;-58
2023/07/12 00:27:59;;;;;;;2.78;0.93;;;20.80;99.90;;;;;;5008592;28;20366;-59
2023/07/12 00:30:31;;;;;;;3.28;0.95;;;20.80;99.90;;;;;;5008555;28;20035;-57
2023/07/12 00:33:02;;;;;;;2.05;1.10;;;20.80;99.90;;;;;;5019342;28;20716;-57
2023/07/12 00:35:29;;;;;;;1.95;1.00;;;20.70;99.90;;;;;;5008420;28;20037;-59
2023/07/12 00:37:57;;;;;;;2.38;1.17;;;20.70;99.90;;;;;;5008667;28;20065;-53
2023/07/12 00:40:25;;;;;;;3.10;1.07;;;20.70;99.90;;;;;;5008627;28;20494;-55
2023/07/12 00:42:58;;;;;;;1.63;0.88;;;20.70;99.90;;;;;;5008321;28;20458;-56
2023/07/12 00:45:25;;;;;;;1.80;0.80;;;20.70;99.90;;;;;;5008265;28;20048;-58
2023/07/12 00:47:51;;;;;;;2.20;0.95;;;20.60;99.90;;;;;;4990691;28;20033;-57
2023/07/12 00:50:19;;;;;;;1.55;1.00;;;20.60;99.90;;;;;;4987278;28;20356;-59
2023/07/12 00:52:47;;;;;;;4.00;1.45;;;20.50;99.90;;;;;;4987207;28;20138;-59
2023/07/12 00:55:50;;;;;;;1.30;0.70;;;20.50;99.90;;;;;;5009248;28;20056;-58
2023/07/12 00:58:16;;;;;;;2.10;1.00;;;20.50;99.90;;;;;;5011836;28;20474;-55
2023/07/12 01:00:42;;;;;;;2.90;0.90;;;20.60;99.90;;;;;;5011697;28;20482;-58
2023/07/12 01:03:13;;;;;;;3.90;1.63;;;20.60;99.90;;;;;;5022982;28;20052;-59
2023/07/12 01:05:44;;;;;;;2.38;0.90;;;20.60;99.90;;;;;;5009378;28;20536;-59
2023/07/12 01:08:11;;;;;;;2.90;1.10;;;20.70;99.90;;;;;;5010433;28;20034;-59
2023/07/12 01:10:38;;;;;;;1.38;0.70;;;20.60;99.90;;;;;;4992929;28;20088;-59
2023/07/12 01:13:05;;;;;;;2.17;0.88;;;20.70;99.90;;;;;;5020090;28;20034;-58
2023/07/12 01:15:32;;;;;;;1.98;1.00;;;20.70;99.90;;;;;;4994248;28;20037;-58
2023/07/12 01:17:58;;;;;;;2.33;1.00;;;20.60;99.90;;;;;;5010592;28;20041;-58
2023/07/12 01:20:25;;;;;;;2.40;1.02;;;20.60;99.90;;;;;;4994292;28;20029;-59
2023/07/12 01:22:54;;;;;;;1.73;0.90;;;20.50;99.90;;;;;;4993964;28;20398;-59
2023/07/12 01:26:12;;;;;;;2.17;0.80;;;20.50;99.90;;;;;;4994520;28;20030;-57
2023/07/12 01:28:38;;;;;;;2.83;0.97;;;20.40;99.90;;;;;;4978385;28;20037;-59
2023/07/12 01:31:04;;;;;;;1.92;0.82;;;20.50;99.90;;;;;;5012774;28;20076;-57
2023/07/12 01:33:30;;;;;;;2.85;0.90;;;20.50;99.90;;;;;;5012488;28;20037;-59
2023/07/12 01:35:55;;;;;;;1.80;0.90;;;20.50;99.90;;;;;;4991904;28;20089;-56
2023/07/12 01:38:23;;;;;;;1.90;1.00;;;20.50;99.90;;;;;;5011345;28;20497;-55
2023/07/12 01:40:49;;;;;;;2.30;0.90;;;20.60;99.90;;;;;;5010868;28;20441;-60
2023/07/12 01:43:15;;;;;;;3.70;1.20;;;20.60;99.90;;;;;;4989735;28;20058;-59
2023/07/12 01:45:41;;;;;;;2.80;1.30;;;20.50;99.90;;;;;;4991958;28;20054;-59
2023/07/12 01:48:06;;;;;;;1.55;0.90;;;20.50;99.90;;;;;;4992334;28;20164;-58
2023/07/12 01:50:32;;;;;;;2.88;0.95;;;20.50;99.90;;;;;;4990849;28;20026;-59
2023/07/12 01:52:57;;;;;;;1.77;0.80;;;20.60;99.90;;;;;;4990959;28;20026;-59
2023/07/12 01:55:23;;;;;;;2.20;1.00;;;20.50;99.90;;;;;;5011451;28;20105;-59
2023/07/12 01:57:48;;;;;;;2.97;0.90;;;20.60;99.90;;;;;;4992926;28;20125;-59
2023/07/12 02:00:14;;;;;;;1.80;0.73;;;20.60;99.90;;;;;;4989819;28;20054;-59
2023/07/12 02:02:44;;;;;;;2.17;0.98;;;20.60;99.90;;;;;;5008120;28;20026;-59
2023/07/12 02:05:10;;;;;;;0.77;0.70;;;20.60;99.90;;;;;;5010768;28;20018;-58
2023/07/12 02:07:35;;;;;;;2.22;0.98;;;20.50;99.90;;;;;;5010844;28;20633;-58
2023/07/12 02:10:14;;;;;;;1.85;0.95;;;20.50;99.90;;;;;;5022515;28;20129;-59
2023/07/12 02:12:41;;;;;;;1.63;0.70;;;20.50;99.90;;;;;;4992497;28;20529;-57
2023/07/12 02:15:09;;;;;;;1.27;0.65;;;20.50;99.90;;;;;;5010797;28;20041;-57
2023/07/12 02:17:35;;;;;;;1.65;0.98;;;20.50;99.90;;;;;;5010666;28;20497;-58
2023/07/12 02:20:00;;;;;;;1.48;0.80;;;20.50;99.90;;;;;;5010644;28;20037;-59
2023/07/12 02:22:29;;;;;;;1.83;0.75;;;20.50;99.90;;;;;;4988966;28;20022;-59
2023/07/12 02:24:55;;;;;;;;;;;20.50;99.90;;;;;;5010084;28;20024;-59
2023/07/12 02:27:20;;;;;;;3.05;1.02;;;20.50;99.90;;;;;;5008726;28;19910;-59
2023/07/12 02:29:48;;;;;;;2.33;1.00;;;20.40;99.90;;;;;;4992822;28;20030;-60
2023/07/12 02:32:14;;;;;;;2.72;1.10;;;20.30;99.90;;;;;;5003838;28;20096;-59
2023/07/12 02:34:39;;;;;;;4.72;1.27;;;20.10;99.90;;;;;;4991078;28;20034;-58
2023/07/12 02:37:05;;;;;;;5.05;1.25;;;19.90;99.90;;;;;;5010325;28;20034;-59
2023/07/12 02:39:31;;;;;;;2.20;1.30;;;19.80;99.90;;;;;;5010382;28;20029;-59
2023/07/12 02:41:56;;;;;;;3.35;1.45;;;19.60;99.90;;;;;;5009906;28;20030;-59
2023/07/12 02:44:22;;;;;;;3.25;1.40;;;19.60;99.90;;;;;;5009782;28;20406;-59
2023/07/12 02:46:48;;;;;;;3.22;1.45;;;19.60;99.90;;;;;;5009616;28;20494;-55
2023/07/12 02:49:13;;;;;;;2.42;1.25;;;19.60;99.90;;;;;;5010006;28;20501;-59
2023/07/12 02:51:39;;;;;;;3.83;1.85;;;19.50;99.90;;;;;;5009650;28;20022;-59
2023/07/12 02:54:05;;;;;;;4.10;1.75;;;19.30;99.90;;;;;;5009781;28;20551;-59
2023/07/12 02:56:31;;;;;;;3.88;1.60;;;19.10;99.90;;;;;;5009790;28;20065;-59
2023/07/12 02:58:56;;;;;;;3.88;1.40;;;18.80;99.90;;;;;;5010199;28;20076;-57
2023/07/12 03:01:22;;;;;;;3.40;1.75;;;18.70;99.90;;;;;;5010227;28;20056;-59
2023/07/12 03:03:48;;;;;;;4.45;1.50;;;18.60;99.90;;;;;;5009923;28;20092;-57
2023/07/12 03:06:13;;;;;;;3.88;1.80;;;18.60;99.90;;;;;;4988960;28;20065;-57
2023/07/12 03:08:39;;;;;;;4.03;1.73;;;18.60;99.90;;;;;;5007741;28;20442;-59
2023/07/12 03:11:08;;;;;;;5.10;1.70;;;18.40;99.90;;;;;;5009202;28;20030;-58
2023/07/12 03:13:33;;;;;;;3.60;1.50;;;18.40;99.90;;;;;;5009072;28;20022;-58
2023/07/12 03:16:02;;;;;;;5.07;1.42;;;18.50;99.90;;;;;;5010047;28;20385;-58
2023/07/12 03:18:27;;;;;;;2.55;1.38;;;18.40;99.90;;;;;;5017585;28;20033;-57
2023/07/12 03:20:59;;;;;;;4.60;1.40;;;18.30;99.90;;;;;;5030842;28;20119;-57
2023/07/12 03:23:24;;;;;;;5.85;1.45;;;18.20;99.90;;;;;;5030510;28;20083;-60
2023/07/12 03:25:50;;;;;;;5.60;1.35;;;18.10;99.90;;;;;;5030770;28;20037;-60
2023/07/12 03:28:16;;;;;;;4.10;1.27;;;18.00;99.90;;;;;;5030936;28;20044;-59
2023/07/12 03:30:41;;;;;;;3.00;1.25;;;17.90;99.90;;;;;;5030800;28;20044;-60
2023/07/12 03:33:07;;;;;;;3.50;1.33;;;17.90;99.90;;;;;;5030515;28;20030;-60
2023/07/12 03:35:32;;;;;;;4.10;1.48;;;17.80;99.90;;;;;;5030641;28;20030;-60
2023/07/12 03:37:58;;;;;;;2.15;1.13;;;17.70;99.90;;;;;;5030613;28;20389;-60
2023/07/12 03:40:24;;;;;;;2.55;1.10;;;17.70;99.90;;;;;;5030569;28;20033;-60
2023/07/12 03:42:49;;;;;;;3.58;1.25;;;17.60;99.90;;;;;;5030445;28;20044;-60
2023/07/12 03:45:15;;;;;;;3.95;1.52;;;17.60;99.90;;;;;;5030493;28;20029;-60
2023/07/12 03:47:40;;;;;;;5.57;1.55;;;17.50;99.90;;;;;;5030772;28;20425;-59
2023/07/12 03:50:06;;;;;;;4.35;1.92;;;17.40;99.90;;;;;;5030496;28;20076;-60
2023/07/12 03:52:32;;;;;;;4.82;1.63;;;17.50;99.90;;;;;;5030078;28;20021;-60
2023/07/12 03:54:58;;;;;;;3.67;1.55;;;17.50;99.90;;;;;;5030337;28;20083;-60
2023/07/12 03:57:23;;;;;;;4.38;1.45;;;17.50;99.90;;;;;;5030561;28;20525;-60
2023/07/12 03:59:49;;;;;;;3.03;1.52;;;17.50;99.90;;;;;;5030535;28;20116;-60
2023/07/12 04:02:15;;;;;;;4.43;1.50;;;17.50;99.90;;;;;;5030507;28;20029;-60
2023/07/12 04:04:40;;;;;;;3.80;1.70;;;17.50;99.90;;;;;;5030226;28;20043;-60
2023/07/12 04:07:07;;;;;;;4.55;1.70;;;17.40;99.90;;;;;;5030367;28;20087;-60
2023/07/12 04:09:32;;;;;;;6.05;1.77;;;17.40;99.90;;;;;;5030347;28;20033;-60
2023/07/12 04:11:58;;;;;;;4.95;2.40;;;17.30;99.90;;;;;;5030347;28;20025;-59
2023/07/12 04:14:24;;;;;;;4.40;1.65;;;17.40;99.90;;;;;;5030062;28;20034;-60
2023/07/12 04:16:49;;;;;;;3.85;1.83;;;17.40;99.90;;;;;;5030452;28;20106;-59
2023/07/12 04:19:15;;;;;;;6.07;1.70;;;17.40;99.90;;;;;;5030259;28;20509;-60
2023/07/12 04:21:41;;;;;;;6.85;2.97;;;17.30;99.90;;;;;;5030523;28;20478;-60
2023/07/12 04:24:06;;;;;;;5.75;1.67;;;17.30;99.90;;;;;;5029901;28;20025;-59
2023/07/12 04:26:32;;;;;;;3.85;1.50;;;17.30;99.90;;;;;;5030293;28;20504;-60
2023/07/12 04:28:58;;;;;;;5.90;2.97;;;17.20;99.90;;;;;;5031023;28;20482;-60
2023/07/12 04:31:24;;;;;;;3.63;1.40;;;17.30;99.90;;;;;;5033890;28;20061;-59
2023/07/12 04:33:49;;;;;;;4.90;1.63;;;17.20;99.90;;;;;;5033956;28;20516;-59
2023/07/12 04:36:16;;;;;;;5.20;2.17;;;17.20;99.90;;;;;;5033637;28;20029;-60
2023/07/12 04:38:42;;;;;;;3.17;1.85;;;17.20;99.90;;;;;;5033719;28;20087;-60
2023/07/12 04:41:08;;;;;;;5.60;2.25;;;17.20;99.90;;;;;;5033881;28;20025;-59
2023/07/12 04:43:34;;;;;;;4.45;1.58;;;17.20;99.90;;;;;;5033514;28;20486;-60
2023/07/12 04:46:00;;;;;;;6.75;1.65;;;17.20;99.90;;;;;;5033665;28;20533;-57
2023/07/12 04:48:26;;;;;;;4.55;1.30;;;17.30;99.90;;;;;;5033652;28;20073;-60
2023/07/12 04:50:53;;;;;;;4.78;1.80;;;17.30;99.90;;;;;;5033420;28;20084;-58
2023/07/12 04:53:21;;;;;;;3.50;1.50;;;17.30;99.90;;;;;;5033227;28;20040;-60
2023/07/12 04:55:47;;;;;;;4.82;1.77;;;17.30;99.90;;;;;;5033274;28;20490;-60
2023/07/12 04:58:13;;;;;;;2.35;1.30;;;17.20;99.90;;;;;;5016129;28;20053;-57
2023/07/12 05:00:39;;;;;;;3.88;1.63;;;17.30;99.90;;;;;;5033371;28;20069;-61
2023/07/12 05:03:05;;;;;;;4.82;1.60;;;17.30;99.90;;;;;;5033174;28;20037;-61
2023/07/12 05:05:30;;;;;;;3.85;2.47;;;17.40;99.90;;;;;;5033040;28;20029;-60
2023/07/12 05:07:56;;;;;;;5.20;2.92;;;17.40;99.90;;;;;;5033290;28;20033;-61
2023/07/12 05:10:22;;;;;;;5.53;1.98;;;17.50;99.90;;;;;;5033532;28;20104;-59
2023/07/12 05:12:47;;;;;;;6.72;2.50;;;17.50;99.90;;;;;;5032917;28;20477;-59
2023/07/12 05:15:13;;;;;;;10.52;2.65;;;17.50;99.90;;;;;;5032913;28;20043;-61
2023/07/12 05:17:39;;;;;;;5.90;2.40;;;17.50;99.90;;;;;;5033147;28;20061;-61
2023/07/12 05:20:07;;;;;;;6.57;2.58;;;17.50;99.90;;;;;;5015159;28;20034;-61
2023/07/12 05:22:33;;;;;;;5.30;2.60;;;17.60;99.90;;;;;;5032624;28;20025;-61
2023/07/12 05:24:59;;;;;;;5.38;2.50;;;17.60;99.90;;;;;;5032826;28;20065;-60
2023/07/12 05:27:26;;;;;;;4.47;1.83;;;17.50;99.90;;;;;;5033026;28;20092;-60
2023/07/12 05:29:52;;;;;;;3.25;1.17;;;17.60;99.90;;;;;;5032942;28;20057;-60
2023/07/12 05:32:18;;;;;;;4.80;1.60;;;17.60;99.90;;;;;;5032544;28;20123;-61
2023/07/12 05:34:43;;;;;;;4.85;1.58;;;17.70;99.90;;;;;;5032678;28;20021;-61
2023/07/12 05:37:10;;;;;;;3.92;0.93;;;17.60;99.90;;;;;;5015186;28;20529;-61
2023/07/12 05:39:36;;;;;;;2.33;1.05;;;17.60;99.90;;;;;;5032292;28;20045;-61
2023/07/12 05:42:02;;;;;;;4.25;1.30;;;17.60;99.90;;;;;;5032856;28;20478;-61
2023/07/12 05:44:28;;;;;;;2.92;1.38;;;17.50;99.90;;;;;;5032593;28;20038;-61
2023/07/12 05:46:53;;;;;;;2.40;1.20;;;17.50;99.90;;;;;;5032709;28;20363;-61
2023/07/12 05:49:19;;;;;;;3.97;1.25;;;17.50;99.90;;;;;;5032432;28;20532;-60
2023/07/12 05:51:45;;;;;;;5.05;1.83;;;17.50;99.90;;;;;;5032310;28;20033;-61
2023/07/12 05:54:12;;;;;;;4.43;1.60;;;17.50;99.90;;;;;;5032328;28;20080;-59
2023/07/12 05:56:38;;;;;;;3.35;1.60;;;17.50;99.90;;;;;;5032462;28;20033;-61
2023/07/12 05:59:04;;;;;;;5.90;1.45;;;17.60;99.90;;;;;;5032535;28;20536;-60
2023/07/12 06:01:30;;;;;;;4.45;1.15;;;17.50;99.90;;;;;;5032387;28;20033;-60
2023/07/12 06:03:55;;;;;;;3.90;1.52;;;17.50;99.90;;;;;;5032222;28;20077;-59
2023/07/12 06:06:21;;;;;;;3.97;1.40;;;17.50;99.90;;;;;;5032202;28;20037;-60
2023/07/12 06:08:47;;;;;;;3.70;1.75;;;17.50;99.90;;;;;;5032634;28;20037;-60
2023/07/12 06:11:13;;;;;;;3.30;1.63;;;17.40;99.90;;;;;;5032680;28;20030;-57
2023/07/12 06:13:38;;;;;;;5.30;2.20;;;17.30;99.90;;;;;;5032458;28;20493;-60
2023/07/12 06:16:04;;;;;;;5.53;2.42;;;17.40;99.90;;;;;;5032484;28;20025;-60
2023/07/12 06:18:31;;;;;;;3.78;1.73;;;17.40;99.90;;;;;;5032076;28;20099;-60
2023/07/12 06:21:00;;;;;;;4.30;1.70;;;17.50;99.90;;;;;;5032226;28;20029;-61
2023/07/12 06:23:27;;;;;;;5.32;1.80;;;17.60;99.90;;;;;;5032754;28;20036;-61
2023/07/12 06:25:57;;;;;;;4.75;1.58;;;17.70;99.90;;;;;;5033223;28;20025;-61
2023/07/12 06:28:23;;;;;;;3.95;1.63;;;17.80;99.90;;;;;;5033292;28;20021;-61
2023/07/12 06:30:49;;;;;;;3.72;1.73;;;18.00;99.90;;;;;;5032580;28;20493;-60
2023/07/12 06:33:14;;;;;;;5.50;1.70;;;18.10;99.90;;;;;;5031373;28;20034;-61
2023/07/12 06:35:40;;;;;;;2.78;1.50;;;18.20;99.90;;;;;;5031382;28;20176;-61
2023/07/12 06:38:06;;;;;;;34.83;17.45;;;18.30;99.90;;;;;;5031585;28;20083;-61
2023/07/12 06:40:31;;;;;;;9.23;4.47;;;18.40;99.90;;;;;;5031554;28;20304;-61
2023/07/12 06:42:57;;;;;;;12.02;5.57;;;18.50;99.90;;;;;;5031204;28;20033;-60
2023/07/12 06:45:23;;;;;;;13.90;5.07;;;18.60;99.90;;;;;;5031299;28;20045;-55
2023/07/12 06:47:49;;;;;;;11.93;5.65;;;18.60;99.90;;;;;;5031318;28;20041;-58
2023/07/12 06:50:14;;;;;;;5.25;1.60;;;18.70;99.90;;;;;;5013439;28;20485;-59
2023/07/12 06:52:40;;;;;;;4.28;1.08;;;18.60;99.90;;;;;;5030083;28;20022;-59
2023/07/12 06:55:06;;;;;;;3.38;1.30;;;18.60;99.90;;;;;;5031058;28;20489;-60
2023/07/12 06:57:34;;;;;;;3.03;1.35;;;18.70;99.90;;;;;;5031339;28;20018;-60
2023/07/12 07:00:04;;;;;;;7.00;1.70;;;18.70;99.90;;;;;;5031100;28;20026;-61
2023/07/12 07:02:30;;;;;;;4.13;1.30;;;18.70;99.90;;;;;;5031029;28;20468;-61
2023/07/12 07:04:55;;;;;;;3.40;1.40;;;18.70;99.90;;;;;;5030973;28;20112;-61
2023/07/12 07:07:21;;;;;;;6.32;1.42;;;18.90;99.90;;;;;;5031017;28;20071;-60
2023/07/12 07:09:47;;;;;;;3.95;1.48;;;19.00;99.90;;;;;;5031053;28;20029;-59
2023/07/12 07:12:12;;;;;;;4.50;1.75;;;19.10;99.90;;;;;;5030624;28;20037;-61
2023/07/12 07:14:39;;;;;;;4.07;1.08;;;19.20;99.90;;;;;;5030657;28;20116;-58
2023/07/12 07:17:07;;;;;;;4.47;1.33;;;19.10;99.90;;;;;;5030939;28;20301;-60
2023/07/12 07:19:32;;;;;;;2.78;1.30;;;19.00;99.90;;;;;;5030611;28;20091;-59
2023/07/12 07:21:58;;;;;;;10.90;2.45;;;18.90;99.90;;;;;;5030618;28;20394;-60
2023/07/12 07:24:23;;;;;;;11.13;4.40;;;18.90;99.90;;;;;;5030722;28;20033;-60
2023/07/12 07:26:49;;;;;;;11.98;6.25;;;19.00;99.90;;;;;;5030825;28;20056;-58
2023/07/12 07:29:15;;;;;;;2.55;1.48;;;19.10;99.90;;;;;;5030641;28;20138;-58
2023/07/12 07:31:40;;;;;;;2.40;1.30;;;19.10;99.90;;;;;;5030671;28;20037;-60
2023/07/12 07:34:06;;;;;;;7.38;1.50;;;19.20;99.90;;;;;;5030297;28;20021;-60
2023/07/12 07:36:32;;;;;;;2.90;1.10;;;19.20;99.90;;;;;;5030773;28;20410;-59
2023/07/12 07:38:57;;;;;;;3.63;1.38;;;19.20;99.90;;;;;;5030654;28;20017;-61
2023/07/12 07:41:23;;;;;;;2.05;1.00;;;19.30;99.90;;;;;;5030490;28;20498;-60
2023/07/12 07:43:49;;;;;;;1.92;1.10;;;19.50;99.90;;;;;;5012876;28;20067;-61
2023/07/12 07:46:15;;;;;;;2.80;1.48;;;19.60;99.90;;;;;;5030860;28;20029;-60
2023/07/12 07:48:41;;;;;;;3.00;1.13;;;19.60;99.90;;;;;;5030541;28;20064;-61
2023/07/12 07:51:08;;;;;;;3.72;1.70;;;19.70;99.90;;;;;;5030630;28;20120;-60
2023/07/12 07:53:34;;;;;;;4.28;1.20;;;19.80;99.90;;;;;;5030222;28;20033;-61
2023/07/12 07:56:00;;;;;;;5.78;1.50;;;19.80;99.90;;;;;;5030329;28;20034;-61
2023/07/12 07:58:26;;;;;;;3.22;1.20;;;19.90;99.90;;;;;;5030363;28;20041;-59
2023/07/12 08:00:52;;;;;;;3.10;1.38;;;19.90;99.90;;;;;;5030500;28;20068;-61
2023/07/12 08:03:18;;;;;;;4.50;1.13;;;20.00;99.90;;;;;;5031477;28;20029;-61
2023/07/12 08:05:45;;;;;;;3.72;1.17;;;20.10;99.90;;;;;;5034102;28;20091;-61
2023/07/12 08:08:11;;;;;;;3.13;1.58;;;20.20;99.90;;;;;;5034533;28;20049;-61
2023/07/12 08:10:37;;;;;;;3.00;1.20;;;20.20;99.90;;;;;;5034211;28;20029;-61
2023/07/12 08:13:03;;;;;;;4.55;1.40;;;20.20;99.90;;;;;;5033955;28;20402;-61
2023/07/12 08:15:29;;;;;;;4.15;1.10;;;20.20;99.90;;;;;;5034025;28;20400;-61
2023/07/12 08:17:54;;;;;;;5.47;1.40;;;20.20;99.90;;;;;;5034147;28;20030;-61
2023/07/12 08:20:22;;;;;;;3.75;1.13;;;20.20;99.90;;;;;;5034123;28;20048;-60
2023/07/12 08:22:48;;;;;;;11.52;4.68;;;20.20;99.90;;;;;;5033718;28;20045;-61
2023/07/12 08:25:15;;;;;;;4.85;1.98;;;20.20;99.90;;;;;;5033814;28;20072;-61
2023/07/12 08:27:41;;;;;;;15.23;6.97;;;20.50;99.90;;;;;;5033915;28;20032;-61
2023/07/12 08:30:08;;;;;;;6.13;2.40;;;20.50;99.90;;;;;;5033965;28;20036;-61
2023/07/12 08:32:34;;;;;;;6.80;2.63;;;20.50;99.90;;;;;;5033606;28;20085;-61
2023/07/12 08:35:00;;;;;;;3.65;1.40;;;20.60;99.90;;;;;;5033973;28;20112;-60
2023/07/12 08:37:27;;;;;;;5.40;1.52;;;20.60;99.90;;;;;;5033936;28;20029;-59
2023/07/12 08:39:53;;;;;;;3.65;1.45;;;20.70;99.90;;;;;;5033939;28;20108;-60
2023/07/12 08:42:35;;;;;;;4.50;1.55;;;20.80;99.90;;;;;;5033534;28;20695;-60
2023/07/12 08:45:18;;;;;;;4.70;1.52;;;20.90;99.90;;;;;;5033661;28;20116;-60
2023/07/12 08:47:44;;;;;;;9.63;4.20;;;21.00;99.90;;;;;;5033639;28;20513;-58
2023/07/12 08:50:14;;;;;;;5.10;1.90;;;21.00;99.90;;;;;;5033622;28;20490;-60
2023/07/12 08:52:40;;;;;;;3.83;1.45;;;20.90;99.90;;;;;;5033441;28;20506;-60
2023/07/12 08:55:18;;;;;;;3.22;1.80;;;20.70;99.90;;;;;;5033721;28;20049;-60
2023/07/12 08:57:52;;;;;;;5.20;1.88;;;20.70;99.90;;;;;;5032699;28;20033;-59
2023/07/12 09:00:27;;;;;;;2.55;1.40;;;20.80;99.90;;;;;;5033815;28;20466;-60
2023/07/12 09:02:53;;;;;;;2.90;1.10;;;21.00;99.90;;;;;;5033157;28;20029;-60
2023/07/12 09:05:22;;;;;;;5.55;1.98;;;21.00;99.90;;;;;;5033747;28;20066;-59
2023/07/12 09:07:53;;;;;;;;;;;20.90;99.90;;;;;;5034098;28;20053;-59
2023/07/12 09:10:29;;;;;;;2.35;1.50;;;21.00;99.90;;;;;;5033411;28;19908;-60
2023/07/12 09:12:57;;;;;;;4.53;1.90;;;21.00;99.90;;;;;;5033088;28;20030;-59
2023/07/12 09:15:33;;;;;;;3.58;2.00;;;21.00;99.90;;;;;;5032164;28;20025;-59
2023/07/12 09:17:59;;;;;;;6.85;1.88;;;21.00;99.90;;;;;;5033383;28;20036;-60
2023/07/12 09:20:28;;;;;;;3.25;1.30;;;21.10;99.90;;;;;;5033088;28;20033;-59
2023/07/12 09:22:54;;;;;;;;;;;21.30;99.90;;;;;;5033520;28;20496;-60
2023/07/12 09:25:23;;;;;;;3.78;1.27;;;21.50;99.90;;;;;;5032851;28;19951;-61
2023/07/12 09:27:49;;;;;;;6.95;1.15;;;21.50;99.90;;;;;;5033037;28;20029;-59
2023/07/12 09:30:22;;;;;;;4.72;1.38;;;21.50;99.90;;;;;;5032683;28;20524;-61
2023/07/12 09:32:49;;;;;;;2.60;0.98;;;21.40;99.90;;;;;;5032610;28;20041;-60
2023/07/12 09:35:31;;;;;;;4.07;1.38;;;21.40;99.90;;;;;;5032587;28;20033;-59
2023/07/12 09:37:59;;;;;;;4.22;1.75;;;21.40;99.90;;;;;;5032710;28;20029;-59
2023/07/12 09:40:29;;;;;;;4.22;1.05;;;21.40;99.90;;;;;;5032806;28;20432;-60
2023/07/12 09:43:02;;;;;;;3.13;1.10;;;21.50;99.90;;;;;;5032415;28;20055;-59
2023/07/12 09:45:31;;;;;;;3.42;1.00;;;21.50;99.90;;;;;;5032530;28;20510;-60
2023/07/12 09:48:05;;;;;;;2.42;0.90;;;21.60;99.90;;;;;;5032696;28;20543;-61
2023/07/12 09:50:39;;;;;;;3.22;1.15;;;21.80;99.90;;;;;;5032489;28;20034;-60
2023/07/12 09:53:37;;;;;;;2.58;0.90;;;21.90;99.90;;;;;;5032244;28;20022;-60
2023/07/12 09:56:18;;;;;;;2.63;0.95;;;22.10;99.90;;;;;;5004906;28;20041;-60
2023/07/12 09:58:54;;;;;;;4.13;1.23;;;22.30;99.90;;;;;;5032346;28;20045;-60
2023/07/12 10:01:32;;;;;;;4.55;1.30;;;22.10;99.90;;;;;;5032112;28;20512;-61
2023/07/12 10:04:05;;;;;;;2.85;1.08;;;22.00;99.90;;;;;;5032317;28;20037;-61
2023/07/12 10:06:44;;;;;;;2.33;1.15;;;22.00;99.90;;;;;;5032591;28;20044;-60
2023/07/12 10:09:27;;;;;;;3.28;1.02;;;22.00;99.90;;;;;;5032489;28;20076;-60
2023/07/12 10:12:26;;;;;;;2.60;1.23;;;21.90;99.90;;;;;;5032128;28;20036;-61
2023/07/12 10:14:54;;;;;;;1.27;0.65;;;21.80;99.90;;;;;;5032075;28;20414;-60
2023/07/12 10:17:33;;;;;;;2.22;0.90;;;21.60;99.90;;;;;;5032092;28;20032;-61
2023/07/12 10:20:00;;;;;;;2.60;0.93;;;21.50;99.90;;;;;;5032245;28;20040;-60
2023/07/12 10:22:38;;;;;;;6.00;1.30;;;21.50;99.90;;;;;;5031733;28;20087;-59
2023/07/12 10:25:27;;;;;;;;;;;21.60;99.90;;;;;;5032603;28;20056;-60
2023/07/12 10:28:27;;;;;;;4.20;1.13;;;21.70;99.90;;;;;;5028797;28;19920;-60
2023/07/12 10:30:56;;;;;;;2.35;0.80;;;21.80;99.90;;;;;;5005679;28;20485;-60
2023/07/12 10:33:34;;;;;;;2.58;1.05;;;21.80;99.90;;;;;;5031713;28;20069;-60
2023/07/12 10:36:07;;;;;;;6.15;1.45;;;21.90;99.90;;;;;;5013843;28;20033;-60
2023/07/12 10:38:32;;;;;;;2.80;0.82;;;21.80;99.90;;;;;;5032487;28;20125;-58
2023/07/12 10:41:04;;;;;;;3.15;1.00;;;21.70;99.90;;;;;;5031485;28;20076;-58
2023/07/12 10:43:47;;;;;;;5.60;1.30;;;21.50;99.90;;;;;;5031256;28;20036;-58
2023/07/12 10:46:32;;;;;;;1.90;0.80;;;21.70;99.90;;;;;;5031695;28;20037;-60
2023/07/12 10:49:02;;;;;;;3.08;0.93;;;21.80;99.90;;;;;;5031498;28;20041;-60
2023/07/12 10:51:38;;;;;;;4.80;1.40;;;22.00;99.90;;;;;;5031052;28;20034;-60
2023/07/12 10:54:05;;;;;;;4.22;1.00;;;22.10;99.70;;;;;;5031076;28;20056;-60
2023/07/12 10:56:49;;;;;;;2.92;1.10;;;22.30;99.90;;;;;;5031862;28;20033;-60
2023/07/12 10:59:33;;;;;;;3.65;1.10;;;22.50;98.60;;;;;;5032084;28;20381;-61
2023/07/12 11:02:21;;;;;;;3.30;1.00;;;22.60;98.20;;;;;;5031250;28;20032;-60
2023/07/12 11:04:49;;;;;;;2.17;0.82;;;22.70;97.90;;;;;;5031382;28;20068;-60
2023/07/12 11:07:14;;;;;;;2.45;1.00;;;22.70;97.90;;;;;;5032453;28;20047;-59
2023/07/12 11:09:43;;;;;;;3.17;0.90;;;22.80;97.40;;;;;;5032586;28;20033;-58
2023/07/12 11:12:11;;;;;;;2.88;0.95;;;22.90;97.80;;;;;;5031510;28;20044;-60
2023/07/12 11:14:42;;;;;;;3.13;1.40;;;22.90;96.10;;;;;;5031020;28;20474;-60
2023/07/12 11:17:11;;;;;;;2.03;0.90;;;22.80;96.30;;;;;;5030941;28;20037;-59
2023/07/12 11:19:39;;;;;;;1.77;0.90;;;22.70;96.40;;;;;;5081195;22;20056;-47
2023/07/12 11:22:23;;;;;;;3.78;1.30;;;22.50;96.00;;;;;;5052331;28;20029;-51
2023/07/12 11:24:48;;;;;;;4.03;1.25;;;22.50;96.50;;;;;;5053295;28;20209;-53
2023/07/12 11:27:39;;;;;;;2.03;1.08;;;22.50;96.50;;;;;;5053071;28;20466;-51
2023/07/12 11:30:39;;;;;;;3.28;1.38;;;22.50;96.40;;;;;;5053174;28;20032;-52
2023/07/12 11:33:28;;;;;;;4.50;1.25;;;22.50;97.10;;;;;;5052773;28;20370;-52
2023/07/12 11:36:06;;;;;;;3.88;0.98;;;22.60;97.70;;;;;;5052904;28;20025;-53
2023/07/12 11:38:34;;;;;;;3.30;0.80;;;22.90;96.40;;;;;;5034946;28;20029;-51
2023/07/12 11:41:14;;;;;;;1.42;0.75;;;23.00;96.00;;;;;;5053319;28;20045;-51
2023/07/12 11:43:40;;;;;;;3.50;0.85;;;23.10;96.60;;;;;;5052704;28;20281;-52
2023/07/12 11:46:22;;;;;;;7.57;1.00;;;23.30;95.10;;;;;;5053038;28;20381;-53
2023/07/12 11:48:50;;;;;;;1.27;0.70;;;23.40;94.80;;;;;;5053024;28;20489;-51
2023/07/12 11:51:20;;;;;;;1.70;0.70;;;23.60;93.10;;;;;;5052748;28;20037;-50
2023/07/12 11:53:56;;;;;;;1.98;0.95;;;23.60;93.60;;;;;;5053078;28;20139;-53
2023/07/12 11:56:22;;;;;;;1.73;0.80;;;23.60;92.80;;;;;;5053152;28;20091;-52
2023/07/12 11:58:48;;;;;;;1.85;0.70;;;23.50;92.00;;;;;;5035350;28;20420;-52
2023/07/12 12:01:16;;;;;;;1.33;0.73;;;23.50;92.10;;;;;;5035240;28;20086;-51
2023/07/12 12:03:42;;;;;;;1.15;0.73;;;23.60;92.10;;;;;;5052438;28;20028;-52
2023/07/12 12:06:12;;;;;;;2.28;0.70;;;23.40;92.40;;;;;;5052891;28;20033;-53
2023/07/12 12:08:42;;;;;;;1.77;1.10;;;23.40;92.60;;;;;;5053158;28;20126;-53
2023/07/12 12:11:07;;;;;;;1.77;0.60;;;23.60;92.00;;;;;;5053007;28;20047;-51
2023/07/12 12:13:46;;;;;;;2.47;0.95;;;23.70;91.70;;;;;;5052544;28;20025;-52
2023/07/12 12:16:29;;;;;;;2.88;0.70;;;23.80;93.00;;;;;;5052560;28;20393;-50
2023/07/12 12:18:58;;;;;;;1.98;0.85;;;23.80;92.20;;;;;;5052970;28;20492;-51
2023/07/12 12:21:25;;;;;;;2.83;0.90;;;23.60;90.90;;;;;;5052756;28;20095;-48
2023/07/12 12:23:57;;;;;;;1.63;0.60;;;23.50;91.60;;;;;;5052667;28;20029;-53
2023/07/12 12:26:27;;;;;;;2.08;0.85;;;23.60;92.70;;;;;;5052307;28;20120;-52
2023/07/12 12:29:16;;;;;;;1.85;0.70;;;23.90;91.90;;;;;;5052817;28;20048;-52
2023/07/12 12:32:12;;;;;;;5.32;2.53;;;23.80;91.70;;;;;;5052206;28;20409;-50
2023/07/12 12:34:43;;;;;;;12.10;7.35;;;23.60;92.10;;;;;;5051379;28;20052;-52
2023/07/12 12:37:14;;;;;;;5.35;2.72;;;23.70;92.70;;;;;;5052934;28;20057;-52
2023/07/12 12:39:40;;;;;;;3.03;1.70;;;23.90;91.80;;;;;;5052687;28;20065;-51
2023/07/12 12:42:22;;;;;;;5.00;3.30;;;24.00;90.70;;;;;;5052217;28;20102;-49
2023/07/12 12:44:47;;;;;;;4.97;2.58;;;24.00;90.50;;;;;;5034382;28;20036;-49
2023/07/12 12:47:18;;;;;;;3.65;1.60;;;24.20;90.30;;;;;;5052486;28;20028;-51
2023/07/12 12:49:44;;;;;;;2.40;1.13;;;24.30;88.50;;;;;;5053017;28;20417;-49
2023/07/12 12:52:24;;;;;;;5.93;2.83;;;24.30;87.20;;;;;;5055762;28;20029;-51
2023/07/12 12:54:49;;;;;;;4.78;2.63;;;24.30;88.40;;;;;;5055972;28;20087;-48
2023/07/12 12:57:16;;;;;;;6.65;2.72;;;24.50;87.40;;;;;;5056151;28;20425;-51